createdAt,value
2019-02-23T00:00:16.477Z,30.90
2019-02-23T00:02:44.123Z,30.20
2019-02-23T00:05:11.738Z,30.30
2019-02-23T00:07:39.448Z,30.20
2019-02-23T00:10:07.404Z,30.20
2019-02-23T00:12:35.142Z,30.30
2019-02-23T00:15:03.771Z,30.10
2019-02-23T00:17:31.374Z,30.20
2019-02-23T00:19:59.030Z,30.20
2019-02-23T00:22:26.650Z,30.30
2019-02-23T00:24:54.222Z,30.20
2019-02-23T00:27:22.053Z,30.30
2019-02-23T00:29:49.711Z,30.40
2019-02-23T00:32:17.309Z,30.10
2019-02-23T00:34:45.043Z,30.10
2019-02-23T00:37:12.643Z,30.20
2019-02-23T00:39:40.280Z,30.30
2019-02-23T00:42:08.059Z,30.20
2019-02-23T00:44:35.711Z,30.00
2019-02-23T00:47:03.316Z,30.10
2019-02-23T00:49:36.196Z,30.00
2019-02-23T00:52:00.406Z,30.00
2019-02-23T00:54:28.003Z,30.00
2019-02-23T00:56:55.602Z,30.60
2019-02-23T00:59:23.268Z,30.00
2019-02-23T01:01:50.848Z,30.00
2019-02-23T01:04:18.529Z,30.00
2019-02-23T01:06:46.107Z,29.90
2019-02-23T01:09:13.839Z,29.90
2019-02-23T01:11:41.563Z,29.90
2019-02-23T01:14:09.147Z,29.90
2019-02-23T01:16:36.776Z,29.80
2019-02-23T01:19:04.372Z,29.80
2019-02-23T01:21:31.991Z,30.00
2019-02-23T01:23:59.566Z,29.90
2019-02-23T01:26:27.205Z,29.80
2019-02-23T01:28:54.798Z,29.90
2019-02-23T01:31:22.422Z,29.90
2019-02-23T01:33:50.117Z,29.80
2019-02-23T01:36:17.786Z,29.80
2019-02-23T01:38:45.442Z,29.80
2019-02-23T01:41:13.037Z,29.50
2019-02-23T01:43:40.780Z,29.70
2019-02-23T01:46:08.507Z,29.70
2019-02-23T01:48:36.079Z,29.60
2019-02-23T01:51:03.696Z,29.70
2019-02-23T01:53:31.370Z,29.60
2019-02-23T01:55:59.061Z,29.60
2019-02-23T01:58:26.636Z,29.60
2019-02-23T02:00:54.298Z,29.60
2019-02-23T02:03:21.996Z,29.70
2019-02-23T02:05:49.731Z,29.70
2019-02-23T02:08:17.406Z,29.60
2019-02-23T02:10:44.999Z,30.00
2019-02-23T02:13:12.609Z,29.50
2019-02-23T02:15:40.599Z,29.60
2019-02-23T02:18:08.264Z,29.50
2019-02-23T02:20:35.939Z,29.60
2019-02-23T02:23:03.539Z,29.60
2019-02-23T02:25:31.173Z,29.50
2019-02-23T02:27:58.817Z,29.50
2019-02-23T02:30:26.489Z,29.50
2019-02-23T02:32:54.157Z,29.30
2019-02-23T02:35:21.792Z,29.40
2019-02-23T02:37:49.389Z,29.50
2019-02-23T02:40:16.984Z,29.40
2019-02-23T02:42:44.635Z,29.30
2019-02-23T02:45:12.243Z,29.30
2019-02-23T02:47:39.967Z,29.40
2019-02-23T02:50:08.353Z,29.50
2019-02-23T02:52:35.984Z,29.40
2019-02-23T02:55:03.913Z,29.40
2019-02-23T02:57:31.503Z,29.30
2019-02-23T02:59:59.166Z,29.30
2019-02-23T03:02:26.818Z,29.40
2019-02-23T03:04:54.477Z,29.30
2019-02-23T03:07:22.092Z,29.30
2019-02-23T03:09:49.803Z,29.30
2019-02-23T03:12:17.442Z,29.30
2019-02-23T03:14:45.171Z,29.30
2019-02-23T03:17:12.863Z,29.30
2019-02-23T03:19:40.464Z,29.20
2019-02-23T03:22:08.160Z,29.20
2019-02-23T03:24:35.861Z,29.20
2019-02-23T03:27:03.450Z,29.10
2019-02-23T03:29:31.031Z,29.10
2019-02-23T03:31:58.688Z,29.00
2019-02-23T03:34:26.357Z,29.10
2019-02-23T03:36:54.006Z,29.20
2019-02-23T03:39:21.579Z,29.10
2019-02-23T03:41:49.259Z,29.20
2019-02-23T03:44:16.907Z,29.00
2019-02-23T03:46:44.490Z,29.00
2019-02-23T03:49:12.135Z,28.90
2019-02-23T03:51:39.720Z,28.90
2019-02-23T03:54:07.318Z,28.80
2019-02-23T03:56:34.969Z,29.10
2019-02-23T03:59:02.655Z,28.70
2019-02-23T04:01:30.245Z,28.90
2019-02-23T04:03:57.913Z,28.80
2019-02-23T04:06:25.520Z,28.90
2019-02-23T04:08:53.200Z,28.60
2019-02-23T04:11:20.869Z,28.60
2019-02-23T04:13:48.526Z,28.40
2019-02-23T04:16:16.176Z,28.30
2019-02-23T04:18:43.845Z,28.80
2019-02-23T04:21:11.561Z,28.50
2019-02-23T04:23:39.211Z,28.80
2019-02-23T04:26:06.939Z,28.50
2019-02-23T04:28:34.717Z,28.30
2019-02-23T04:31:02.390Z,28.40
2019-02-23T04:33:29.998Z,28.40
2019-02-23T04:35:57.653Z,28.30
2019-02-23T04:38:25.223Z,28.30
2019-02-23T04:40:52.835Z,28.30
2019-02-23T04:43:20.550Z,28.30
2019-02-23T04:45:48.259Z,28.30
2019-02-23T04:48:15.849Z,28.40
2019-02-23T04:50:43.486Z,28.30
2019-02-23T04:53:11.148Z,28.80
2019-02-23T04:55:38.783Z,28.30
2019-02-23T04:58:06.387Z,28.30
2019-02-23T05:00:34.046Z,28.30
2019-02-23T05:03:01.740Z,28.40
2019-02-23T05:05:29.333Z,28.30
2019-02-23T05:07:57.057Z,28.30
2019-02-23T05:10:24.666Z,28.40
2019-02-23T05:12:52.320Z,28.30
2019-02-23T05:15:20.030Z,28.40
2019-02-23T05:17:47.627Z,28.40
2019-02-23T05:20:15.293Z,28.30
2019-02-23T05:22:42.938Z,28.30
2019-02-23T05:25:10.593Z,28.30
2019-02-23T05:27:38.335Z,28.30
2019-02-23T05:30:07.467Z,28.30
2019-02-23T05:32:35.209Z,28.30
2019-02-23T05:35:03.827Z,28.40
2019-02-23T05:37:31.417Z,28.40
2019-02-23T05:39:59.142Z,28.30
2019-02-23T05:42:26.725Z,28.30
2019-02-23T05:44:54.518Z,28.30
2019-02-23T05:47:22.116Z,28.30
2019-02-23T05:49:49.961Z,28.30
2019-02-23T05:52:17.630Z,28.30
2019-02-23T05:54:45.231Z,28.30
2019-02-23T05:57:12.973Z,28.40
2019-02-23T05:59:40.637Z,28.30
2019-02-23T06:02:08.336Z,28.40
2019-02-23T06:04:35.944Z,28.40
2019-02-23T06:07:03.592Z,28.40
2019-02-23T06:09:31.193Z,28.40
2019-02-23T06:11:58.802Z,28.40
2019-02-23T06:14:26.519Z,28.40
2019-02-23T06:16:54.150Z,28.40
2019-02-23T06:19:21.899Z,28.40
2019-02-23T06:21:54.019Z,28.40
2019-02-23T06:24:18.902Z,28.40
2019-02-23T06:26:46.574Z,28.40
2019-02-23T06:29:14.180Z,28.40
2019-02-23T06:31:41.853Z,28.40
2019-02-23T06:34:16.132Z,28.50
2019-02-23T06:36:38.988Z,28.40
2019-02-23T06:39:06.593Z,28.40
2019-02-23T06:41:34.338Z,28.40
2019-02-23T06:44:02.002Z,28.40
2019-02-23T06:46:29.680Z,28.40
2019-02-23T06:48:57.254Z,28.50
2019-02-23T06:51:24.903Z,30.90
2019-02-23T06:53:52.527Z,29.60
2019-02-23T06:56:20.223Z,29.30
2019-02-23T06:58:47.838Z,29.10
2019-02-23T07:01:15.460Z,28.60
2019-02-23T07:03:43.152Z,28.60
2019-02-23T07:06:10.745Z,28.60
2019-02-23T07:08:38.356Z,28.50
2019-02-23T07:11:06.060Z,28.50
2019-02-23T07:13:33.667Z,28.50
2019-02-23T07:16:01.350Z,28.50
2019-02-23T07:18:28.987Z,29.30
2019-02-23T07:20:56.630Z,29.10
2019-02-23T07:23:24.326Z,29.20
2019-02-23T07:25:52.007Z,29.10
2019-02-23T07:28:19.668Z,29.40
2019-02-23T07:30:47.364Z,28.60
2019-02-23T07:33:15.016Z,28.60
2019-02-23T07:35:42.614Z,28.70
2019-02-23T07:38:10.255Z,28.40
2019-02-23T07:40:37.837Z,28.40
2019-02-23T07:43:05.432Z,28.40
2019-02-23T07:45:33.108Z,28.30
2019-02-23T07:48:00.726Z,27.90
2019-02-23T07:50:28.405Z,28.30
2019-02-23T07:52:56.058Z,28.30
2019-02-23T07:55:23.637Z,28.20
2019-02-23T07:57:51.239Z,28.30
2019-02-23T08:00:19.018Z,28.30
2019-02-23T08:02:46.720Z,28.30
2019-02-23T08:05:14.376Z,28.30
2019-02-23T08:07:42.108Z,28.30
2019-02-23T08:10:10.541Z,28.20
2019-02-23T08:12:38.134Z,28.30
2019-02-23T08:15:07.357Z,28.20
2019-02-23T08:17:35.058Z,28.20
2019-02-23T08:20:02.818Z,28.20
2019-02-23T08:22:37.309Z,28.20
2019-02-23T08:24:59.779Z,28.20
2019-02-23T08:27:27.863Z,28.20
2019-02-23T08:29:55.608Z,28.20
2019-02-23T08:32:23.209Z,28.20
2019-02-23T08:34:50.963Z,28.10
2019-02-23T08:37:18.677Z,27.80
2019-02-23T08:39:46.291Z,27.50
2019-02-23T08:42:14.070Z,27.30
2019-02-23T08:44:41.667Z,26.30
2019-02-23T08:47:09.254Z,25.80
2019-02-23T08:49:36.977Z,26.10
2019-02-23T08:52:04.737Z,26.40
2019-02-23T08:54:32.383Z,26.70
2019-02-23T08:57:00.017Z,25.80
2019-02-23T08:59:27.651Z,25.80
2019-02-23T09:01:55.325Z,25.60
2019-02-23T09:04:22.954Z,24.70
2019-02-23T09:06:50.621Z,24.80
2019-02-23T09:09:18.315Z,25.70
2019-02-23T09:11:45.895Z,25.50
2019-02-23T09:14:13.545Z,25.00
2019-02-23T09:16:41.145Z,24.90
2019-02-23T09:19:08.993Z,24.40
2019-02-23T09:21:36.690Z,25.10
2019-02-23T09:24:04.391Z,24.90
2019-02-23T09:26:32.092Z,24.00
2019-02-23T09:28:59.694Z,23.50
2019-02-23T09:31:27.371Z,23.90
2019-02-23T09:33:55.033Z,23.60
2019-02-23T09:36:22.635Z,24.30
2019-02-23T09:38:50.363Z,23.70
2019-02-23T09:41:18.035Z,23.80
2019-02-23T09:43:45.705Z,24.10
2019-02-23T09:46:13.350Z,23.70
2019-02-23T09:48:40.932Z,23.60
2019-02-23T09:51:08.600Z,23.60
2019-02-23T09:53:36.202Z,23.60
2019-02-23T09:56:03.825Z,24.00
2019-02-23T09:58:31.514Z,24.40
2019-02-23T10:00:59.120Z,24.30
2019-02-23T10:03:26.747Z,24.00
2019-02-23T10:05:54.492Z,23.80
2019-02-23T10:08:22.183Z,24.10
2019-02-23T10:10:49.885Z,23.80
2019-02-23T10:13:17.553Z,23.50
2019-02-23T10:15:45.169Z,23.60
2019-02-23T10:18:12.839Z,23.60
2019-02-23T10:20:40.514Z,23.60
2019-02-23T10:23:08.106Z,23.60
2019-02-23T10:25:35.759Z,23.60
2019-02-23T10:28:03.346Z,23.60
2019-02-23T10:30:30.966Z,23.60
2019-02-23T10:32:58.620Z,23.60
2019-02-23T10:35:26.227Z,23.60
2019-02-23T10:37:53.890Z,23.60
2019-02-23T10:40:21.503Z,23.60
2019-02-23T10:42:49.144Z,23.60
2019-02-23T10:45:16.791Z,23.60
2019-02-23T10:47:44.442Z,23.60
2019-02-23T10:50:12.742Z,23.60
2019-02-23T10:52:40.444Z,23.60
2019-02-23T10:55:09.418Z,23.60
2019-02-23T10:57:37.114Z,23.60
2019-02-23T11:00:10.787Z,23.60
2019-02-23T11:02:38.393Z,23.60
2019-02-23T11:05:07.212Z,23.60
2019-02-23T11:07:34.891Z,23.60
2019-02-23T11:10:02.641Z,23.60
2019-02-23T11:12:30.339Z,23.60
2019-02-23T11:14:57.949Z,23.60
2019-02-23T11:17:25.598Z,23.60
2019-02-23T11:19:53.188Z,23.60
2019-02-23T11:22:20.832Z,23.60
2019-02-23T11:24:48.403Z,23.10
2019-02-23T11:27:16.052Z,22.50
2019-02-23T11:29:43.635Z,22.50
2019-02-23T11:32:11.271Z,22.70
2019-02-23T11:34:38.914Z,22.30
2019-02-23T11:37:06.693Z,22.20
2019-02-23T11:39:34.335Z,22.20
2019-02-23T11:42:01.921Z,22.30
2019-02-23T11:44:29.585Z,21.50
2019-02-23T11:47:00.539Z,21.40
2019-02-23T11:49:26.611Z,21.80
2019-02-23T11:51:54.554Z,21.30
2019-02-23T11:54:22.160Z,20.70
2019-02-23T11:56:49.813Z,20.80
2019-02-23T11:59:17.425Z,20.40
2019-02-23T12:01:45.071Z,20.80
2019-02-23T12:04:12.714Z,21.00
2019-02-23T12:06:40.415Z,20.80
2019-02-23T12:09:08.567Z,20.90
2019-02-23T12:11:36.217Z,20.70
2019-02-23T12:14:03.811Z,20.80
2019-02-23T12:16:31.473Z,20.20
2019-02-23T12:18:59.136Z,20.80
2019-02-23T12:21:26.728Z,20.20
2019-02-23T12:23:54.366Z,19.80
2019-02-23T12:26:22.013Z,19.50
2019-02-23T12:28:49.655Z,18.90
2019-02-23T12:31:17.266Z,19.50
2019-02-23T12:33:44.872Z,19.20
2019-02-23T12:36:12.506Z,19.90
2019-02-23T12:38:40.131Z,19.90
2019-02-23T12:41:07.858Z,20.00
2019-02-23T12:43:35.418Z,19.70
2019-02-23T12:46:03.115Z,19.80
2019-02-23T12:48:30.811Z,19.80
2019-02-23T12:50:58.398Z,19.90
2019-02-23T12:53:26.037Z,20.00
2019-02-23T12:55:53.634Z,20.60
2019-02-23T12:58:21.260Z,20.30
2019-02-23T13:00:48.914Z,20.60
2019-02-23T13:03:16.551Z,20.50
2019-02-23T13:05:44.178Z,20.60
2019-02-23T13:08:11.759Z,20.90
2019-02-23T13:10:39.437Z,21.10
2019-02-23T13:13:14.661Z,21.20
2019-02-23T13:15:43.945Z,21.20
2019-02-23T13:18:19.252Z,21.30
2019-02-23T13:21:05.138Z,21.50
2019-02-23T13:23:43.268Z,21.50
2019-02-23T13:26:15.568Z,21.60
2019-02-23T13:28:50.613Z,21.70
2019-02-23T13:31:34.880Z,21.90
2019-02-23T13:34:06.823Z,22.00
2019-02-23T13:36:41.880Z,22.10
2019-02-23T13:39:14.180Z,22.20
2019-02-23T13:41:55.430Z,22.40
2019-02-23T13:44:27.624Z,22.70
2019-02-23T13:47:02.972Z,22.80
2019-02-23T13:49:34.958Z,23.00
2019-02-23T13:52:10.200Z,22.90
2019-02-23T13:54:42.347Z,23.00
2019-02-23T13:57:26.516Z,23.30
2019-02-23T14:00:01.821Z,23.70
2019-02-23T14:02:31.095Z,23.80
2019-02-23T14:05:00.364Z,23.70
2019-02-23T14:07:45.815Z,23.60
2019-02-23T14:10:17.800Z,23.50
2019-02-23T14:12:54.037Z,23.20
2019-02-23T14:15:23.408Z,23.00
2019-02-23T14:18:09.174Z,22.80
2019-02-23T14:20:41.418Z,22.70
2019-02-23T14:23:13.707Z,22.50
2019-02-23T14:25:45.746Z,22.40
2019-02-23T14:28:20.646Z,22.40
2019-02-23T14:31:06.481Z,22.20
2019-02-23T14:33:47.955Z,22.20
2019-02-23T14:36:17.240Z,22.10
2019-02-23T14:38:58.336Z,21.80
2019-02-23T14:41:42.550Z,21.80
2019-02-23T14:44:14.488Z,21.90
2019-02-23T14:46:49.490Z,21.80
2019-02-23T14:49:24.740Z,21.50
2019-02-23T14:52:05.824Z,21.80
2019-02-23T14:54:38.137Z,21.50
2019-02-23T14:57:10.170Z,21.60
2019-02-23T14:59:39.383Z,21.50
2019-02-23T15:02:20.859Z,21.40
2019-02-23T15:04:59.350Z,21.30
2019-02-23T15:07:34.634Z,21.30
2019-02-23T15:10:20.233Z,21.10
2019-02-23T15:13:05.763Z,21.10
2019-02-23T15:15:43.758Z,21.10
2019-02-23T15:18:15.995Z,20.20
2019-02-23T15:21:00.232Z,20.60
2019-02-23T15:23:29.446Z,21.00
2019-02-23T15:26:04.517Z,20.90
2019-02-23T15:28:45.846Z,20.80
2019-02-23T15:31:31.647Z,20.50
2019-02-23T15:34:19.009Z,20.60
2019-02-23T15:37:06.435Z,20.40
2019-02-23T15:39:41.591Z,20.60
2019-02-23T15:42:13.673Z,20.40
2019-02-23T15:44:52.124Z,20.40
2019-02-23T15:47:24.463Z,20.30
2019-02-23T15:49:52.139Z,20.20
2019-02-23T15:52:19.751Z,20.40
2019-02-23T15:54:47.470Z,20.40
2019-02-23T15:57:15.123Z,20.10
2019-02-23T15:59:44.503Z,20.30
2019-02-23T16:02:12.347Z,20.20
2019-02-23T16:04:39.935Z,20.30
2019-02-23T16:07:07.589Z,20.30
2019-02-23T16:09:35.167Z,20.40
2019-02-23T16:12:02.761Z,20.00
2019-02-23T16:14:30.430Z,20.00
2019-02-23T16:16:58.065Z,20.10
2019-02-23T16:19:25.746Z,20.10
2019-02-23T16:21:53.538Z,20.30
2019-02-23T16:24:21.196Z,20.40
2019-02-23T16:26:48.799Z,20.40
2019-02-23T16:29:16.472Z,20.20
2019-02-23T16:31:44.046Z,19.30
2019-02-23T16:34:11.673Z,19.60
2019-02-23T16:36:39.333Z,19.90
2019-02-23T16:39:08.907Z,19.80
2019-02-23T16:41:36.580Z,19.10
2019-02-23T16:44:05.519Z,19.50
2019-02-23T16:46:33.197Z,19.80
2019-02-23T16:49:00.872Z,19.60
2019-02-23T16:51:28.550Z,19.60
2019-02-23T16:53:56.215Z,19.60
2019-02-23T16:56:23.942Z,19.70
2019-02-23T16:58:51.579Z,19.80
2019-02-23T17:01:19.315Z,19.90
2019-02-23T17:03:46.955Z,19.90
2019-02-23T17:06:14.605Z,20.00
2019-02-23T17:08:42.280Z,20.00
2019-02-23T17:11:09.948Z,19.80
2019-02-23T17:13:37.564Z,19.90
2019-02-23T17:16:05.325Z,19.80
2019-02-23T17:18:33.269Z,18.90
2019-02-23T17:21:00.931Z,19.20
2019-02-23T17:23:28.591Z,18.90
2019-02-23T17:26:04.214Z,18.80
2019-02-23T17:28:25.580Z,18.90
2019-02-23T17:30:53.277Z,18.80
2019-02-23T17:33:20.916Z,18.90
2019-02-23T17:35:48.564Z,18.90
2019-02-23T17:38:16.643Z,19.40
2019-02-23T17:40:44.287Z,19.00
2019-02-23T17:43:12.137Z,19.00
2019-02-23T17:45:39.757Z,19.00
2019-02-23T17:48:07.363Z,19.10
2019-02-23T17:50:35.168Z,19.10
2019-02-23T17:53:02.769Z,19.10
2019-02-23T17:55:30.469Z,19.10
2019-02-23T17:57:58.187Z,19.10
2019-02-23T18:00:25.861Z,19.10
2019-02-23T18:02:53.567Z,19.20
2019-02-23T18:05:21.241Z,19.50
2019-02-23T18:07:48.941Z,19.70
2019-02-23T18:10:16.642Z,20.10
2019-02-23T18:12:44.227Z,20.10
2019-02-23T18:15:11.881Z,20.30
2019-02-23T18:17:39.519Z,20.60
2019-02-23T18:20:09.016Z,22.10
2019-02-23T18:22:36.679Z,21.70
2019-02-23T18:25:04.583Z,21.40
2019-02-23T18:27:32.193Z,21.80
2019-02-23T18:30:09.440Z,21.20
2019-02-23T18:32:29.201Z,21.30
2019-02-23T18:34:56.850Z,21.20
2019-02-23T18:37:24.567Z,21.20
2019-02-23T18:39:52.401Z,21.20
2019-02-23T18:42:20.054Z,21.40
2019-02-23T18:44:47.728Z,21.50
2019-02-23T18:47:15.416Z,21.40
2019-02-23T18:49:43.056Z,21.60
2019-02-23T18:52:11.585Z,21.40
2019-02-23T18:54:39.390Z,21.50
2019-02-23T18:57:07.054Z,21.50
2019-02-23T18:59:34.723Z,21.60
2019-02-23T19:02:02.384Z,21.70
2019-02-23T19:04:30.019Z,21.60
2019-02-23T19:06:57.754Z,21.60
2019-02-23T19:09:25.351Z,21.70
2019-02-23T19:11:53.019Z,21.60
2019-02-23T19:14:20.620Z,21.60
2019-02-23T19:16:48.305Z,22.60
2019-02-23T19:19:15.946Z,23.80
2019-02-23T19:21:43.538Z,23.90
2019-02-23T19:24:11.151Z,23.90
2019-02-23T19:26:38.803Z,23.90
2019-02-23T19:29:06.412Z,23.80
2019-02-23T19:31:34.134Z,23.80
2019-02-23T19:34:01.738Z,23.80
2019-02-23T19:36:29.340Z,23.80
2019-02-23T19:38:57.054Z,23.80
2019-02-23T19:41:24.706Z,23.80
2019-02-23T19:43:52.387Z,23.90
2019-02-23T19:46:20.406Z,23.90
2019-02-23T19:48:48.070Z,23.90
2019-02-23T19:51:15.764Z,23.90
2019-02-23T19:53:43.446Z,23.90
2019-02-23T19:56:11.133Z,23.90
2019-02-23T19:58:38.710Z,23.90
2019-02-23T20:01:06.312Z,23.80
2019-02-23T20:03:34.039Z,23.90
2019-02-23T20:06:01.871Z,23.90
2019-02-23T20:08:29.531Z,23.90
2019-02-23T20:10:57.190Z,23.90
2019-02-23T20:13:24.942Z,23.90
2019-02-23T20:15:52.615Z,23.80
2019-02-23T20:18:20.210Z,23.90
2019-02-23T20:20:47.858Z,23.90
2019-02-23T20:23:15.517Z,23.90
2019-02-23T20:25:43.187Z,23.90
2019-02-23T20:28:10.940Z,23.80
2019-02-23T20:30:38.624Z,23.90
2019-02-23T20:33:06.330Z,23.90
2019-02-23T20:35:33.948Z,23.90
2019-02-23T20:38:01.720Z,23.90
2019-02-23T20:40:29.541Z,23.90
2019-02-23T20:42:57.211Z,23.90
2019-02-23T20:45:24.907Z,23.90
2019-02-23T20:47:52.635Z,23.90
2019-02-23T20:50:22.071Z,23.90
2019-02-23T20:52:49.782Z,24.80
2019-02-23T20:55:17.439Z,24.20
2019-02-23T20:57:45.125Z,24.20
2019-02-23T21:00:12.766Z,24.70
2019-02-23T21:02:40.448Z,24.70
2019-02-23T21:05:09.432Z,24.90
2019-02-23T21:07:37.018Z,24.80
2019-02-23T21:10:05.818Z,24.80
2019-02-23T21:12:35.112Z,24.80
2019-02-23T21:15:03.366Z,24.80
2019-02-23T21:17:31.024Z,24.80
2019-02-23T21:19:58.617Z,24.90
2019-02-23T21:22:26.265Z,24.90
2019-02-23T21:24:53.939Z,24.90
2019-02-23T21:27:21.656Z,24.90
2019-02-23T21:29:49.356Z,24.90
2019-02-23T21:32:17.056Z,25.00
2019-02-23T21:34:44.719Z,24.90
2019-02-23T21:37:12.404Z,25.00
2019-02-23T21:39:40.556Z,24.90
2019-02-23T21:42:08.300Z,25.00
2019-02-23T21:44:35.902Z,25.00
2019-02-23T21:47:03.565Z,24.90
2019-02-23T21:49:31.164Z,25.00
2019-02-23T21:51:58.869Z,25.00
2019-02-23T21:54:26.519Z,25.00
2019-02-23T21:56:54.182Z,25.00
2019-02-23T21:59:21.874Z,25.10
2019-02-23T22:01:49.535Z,25.10
2019-02-23T22:04:17.168Z,25.10
2019-02-23T22:06:44.837Z,25.10
2019-02-23T22:09:12.584Z,25.10
2019-02-23T22:11:40.257Z,25.20
2019-02-23T22:14:07.967Z,25.30
2019-02-23T22:16:35.710Z,25.30
2019-02-23T22:19:03.316Z,25.30
2019-02-23T22:21:30.997Z,25.30
2019-02-23T22:23:58.721Z,25.90
2019-02-23T22:26:26.383Z,25.50
2019-02-23T22:28:54.137Z,25.50
2019-02-23T22:31:21.803Z,25.50
2019-02-23T22:33:49.489Z,25.60
2019-02-23T22:36:17.230Z,25.60
2019-02-23T22:38:44.940Z,25.60
2019-02-23T22:41:12.575Z,25.50
2019-02-23T22:43:40.227Z,25.50
2019-02-23T22:46:07.803Z,25.50
2019-02-23T22:48:35.501Z,25.50
2019-02-23T22:51:03.158Z,25.50
2019-02-23T22:53:30.807Z,25.50
2019-02-23T22:55:58.431Z,25.50
2019-02-23T22:58:26.159Z,25.50
2019-02-23T23:00:54.533Z,25.50
2019-02-23T23:03:22.407Z,25.50
2019-02-23T23:05:50.099Z,25.50
2019-02-23T23:08:17.762Z,25.50
2019-02-23T23:10:45.379Z,25.50
2019-02-23T23:13:13.041Z,25.40
2019-02-23T23:15:40.737Z,25.40
2019-02-23T23:18:08.338Z,25.40
2019-02-23T23:20:35.917Z,25.40
2019-02-23T23:23:03.595Z,25.30
2019-02-23T23:25:31.271Z,25.40
2019-02-23T23:27:59.010Z,25.30
2019-02-23T23:30:26.723Z,25.30
2019-02-23T23:32:54.358Z,25.30
2019-02-23T23:35:21.978Z,25.20
2019-02-23T23:37:49.577Z,25.20
2019-02-23T23:40:17.223Z,25.20
2019-02-23T23:42:44.884Z,25.20
2019-02-23T23:45:12.625Z,25.20
2019-02-23T23:47:40.227Z,25.20
2019-02-23T23:50:07.837Z,25.20
2019-02-23T23:52:35.477Z,25.20
2019-02-23T23:55:03.114Z,25.20
2019-02-23T23:57:30.764Z,25.20
2019-02-23T23:59:58.456Z,25.20
